Cachinal, Argentina
Current Conditions -  °F | °C
As of 9:00 AM on Monday 22 Dec 2014 (Local Time) from SASA Reporting Station
Overcast Overcast  
Wind Chill: 54°   Ceiling: 1500
Heat Index: 54°   Visibility: 5mi
Dew Point: 50°   Wind: 8mph
Humidity: 88%   Direction: 70°ENE
Pressure: 30.24"   Gusts: NA
Location:  24.25°S, 66.07°W
Report Text: SASA 221200Z 07007KT 8000 FEW007 OVC01512/10 Q1024 REDZ
Loading
Personal Weather Stations






























Interactive Weather Map New forecast layout! Learn more

10-Day Weather Forecast

Advertisements
Track Severe Weather on mobile